createdAt,value
2022-08-16T00:01:41.144Z,21.80
2022-08-16T00:04:12.430Z,21.80
2022-08-16T00:06:40.329Z,21.80
2022-08-16T00:09:10.761Z,21.80
2022-08-16T00:11:39.347Z,21.80
2022-08-16T00:14:11.696Z,21.80
2022-08-16T00:17:01.026Z,21.90
2022-08-16T00:19:41.188Z,21.90
2022-08-16T00:22:13.694Z,21.90
2022-08-16T00:24:46.975Z,21.80
2022-08-16T00:27:15.131Z,21.80
2022-08-16T00:29:42.951Z,21.80
2022-08-16T00:32:17.808Z,21.80
2022-08-16T00:34:53.295Z,21.80
2022-08-16T00:37:25.067Z,21.80
2022-08-16T00:40:34.530Z,21.70
2022-08-16T00:43:02.528Z,21.70
2022-08-16T00:45:38.652Z,21.70
2022-08-16T00:48:31.168Z,21.60
2022-08-16T00:51:00.957Z,21.50
2022-08-16T00:53:30.779Z,21.50
2022-08-16T00:56:05.500Z,21.50
2022-08-16T00:58:35.442Z,21.40
2022-08-16T01:01:08.210Z,21.40
2022-08-16T01:03:41.643Z,21.40
2022-08-16T01:06:40.125Z,21.40
2022-08-16T01:09:01.611Z,21.40
2022-08-16T01:11:32.473Z,21.40
2022-08-16T01:14:30.045Z,21.40
2022-08-16T01:16:59.895Z,21.40
2022-08-16T01:19:40.897Z,21.30
2022-08-16T01:22:47.391Z,21.30
2022-08-16T01:25:10.372Z,21.30
2022-08-16T01:27:45.862Z,21.30
2022-08-16T01:30:19.422Z,21.30
2022-08-16T01:33:01.580Z,21.30
2022-08-16T01:35:57.258Z,21.30
2022-08-16T01:38:35.329Z,21.20
2022-08-16T01:41:26.036Z,21.20
2022-08-16T01:44:00.752Z,21.20
2022-08-16T01:46:40.130Z,21.20
2022-08-16T01:49:13.247Z,21.20
2022-08-16T01:51:44.095Z,21.20
2022-08-16T01:54:13.372Z,21.20
2022-08-16T01:56:43.138Z,21.20
2022-08-16T01:59:15.874Z,21.20
2022-08-16T02:01:52.522Z,21.20
2022-08-16T02:04:49.149Z,21.20
2022-08-16T02:07:13.100Z,21.20
2022-08-16T02:09:41.517Z,21.20
2022-08-16T02:12:49.769Z,21.20
2022-08-16T02:14:57.604Z,21.20
2022-08-16T02:17:28.419Z,21.20
2022-08-16T02:19:58.520Z,21.20
2022-08-16T02:22:34.888Z,21.20
2022-08-16T02:25:11.634Z,21.20
2022-08-16T02:27:44.673Z,21.20
2022-08-16T02:30:36.923Z,21.20
2022-08-16T02:33:10.520Z,21.20
2022-08-16T02:35:49.687Z,21.20
2022-08-16T02:38:22.866Z,21.20
2022-08-16T02:40:51.571Z,21.20
2022-08-16T02:43:26.941Z,21.00
2022-08-16T02:45:58.835Z,21.20
2022-08-16T02:48:30.635Z,21.10
2022-08-16T02:51:06.476Z,21.10
2022-08-16T02:53:49.108Z,21.10
2022-08-16T02:56:19.131Z,21.10
2022-08-16T02:58:49.506Z,21.20
2022-08-16T03:01:24.735Z,21.10
2022-08-16T03:04:39.639Z,21.10
2022-08-16T03:06:56.446Z,21.10
2022-08-16T03:09:28.714Z,21.10
2022-08-16T03:11:57.481Z,21.00
2022-08-16T03:14:25.366Z,21.00
2022-08-16T03:17:00.213Z,21.10
2022-08-16T03:19:47.037Z,21.00
2022-08-16T03:22:28.368Z,21.00
2022-08-16T03:24:58.843Z,21.00
2022-08-16T03:27:31.009Z,21.00
2022-08-16T03:30:16.169Z,21.00
2022-08-16T03:32:51.232Z,21.00
2022-08-16T03:35:22.936Z,21.00
2022-08-16T03:38:02.805Z,21.00
2022-08-16T03:40:34.434Z,20.90
2022-08-16T03:43:19.918Z,21.00
2022-08-16T03:45:52.734Z,20.90
2022-08-16T03:48:36.576Z,20.90
2022-08-16T03:51:09.712Z,20.90
2022-08-16T03:53:40.719Z,20.90
2022-08-16T03:56:19.501Z,20.90
2022-08-16T03:58:50.900Z,20.90
2022-08-16T04:01:19.996Z,20.90
2022-08-16T04:03:47.369Z,20.90
2022-08-16T04:06:17.841Z,20.80
2022-08-16T04:08:45.557Z,20.90
2022-08-16T04:11:16.415Z,20.80
2022-08-16T04:14:00.680Z,20.80
2022-08-16T04:16:33.677Z,20.80
2022-08-16T04:19:04.375Z,20.80
2022-08-16T04:21:34.672Z,20.80
2022-08-16T04:24:03.289Z,20.70
2022-08-16T04:26:32.192Z,20.70
2022-08-16T04:29:17.132Z,20.70
2022-08-16T04:31:56.576Z,20.60
2022-08-16T04:34:30.861Z,20.60
2022-08-16T04:37:01.557Z,20.60
2022-08-16T04:39:36.708Z,20.50
2022-08-16T04:42:17.729Z,20.50
2022-08-16T04:44:54.169Z,20.50
2022-08-16T04:47:31.445Z,20.50
2022-08-16T04:50:06.829Z,20.50
2022-08-16T04:52:36.076Z,20.50
2022-08-16T04:55:11.720Z,20.50
2022-08-16T04:57:41.394Z,20.50
2022-08-16T05:00:32.492Z,20.60
2022-08-16T05:03:08.269Z,20.50
2022-08-16T05:05:45.108Z,20.60
2022-08-16T05:08:28.118Z,20.60
2022-08-16T05:11:05.223Z,20.60
2022-08-16T05:13:40.768Z,20.60
2022-08-16T05:16:20.000Z,20.80
2022-08-16T05:18:51.608Z,20.40
2022-08-16T05:21:21.359Z,20.60
2022-08-16T05:23:55.538Z,20.60
2022-08-16T05:26:30.160Z,20.60
2022-08-16T05:28:59.044Z,20.60
2022-08-16T05:31:29.872Z,20.60
2022-08-16T05:34:00.346Z,20.60
2022-08-16T05:36:33.821Z,20.60
2022-08-16T05:39:05.547Z,20.60
2022-08-16T05:41:33.215Z,20.60
2022-08-16T05:44:23.051Z,20.60
2022-08-16T05:47:00.017Z,20.60
2022-08-16T05:49:39.879Z,20.70
2022-08-16T05:52:10.714Z,20.70
2022-08-16T05:54:47.288Z,20.70
2022-08-16T05:57:17.694Z,20.70
2022-08-16T05:59:50.543Z,20.80
2022-08-16T06:02:30.728Z,20.80
2022-08-16T06:05:02.031Z,20.80
2022-08-16T06:07:29.723Z,20.90
2022-08-16T06:10:00.312Z,20.90
2022-08-16T06:12:29.676Z,20.90
2022-08-16T06:15:04.172Z,20.90
2022-08-16T06:17:43.036Z,20.90
2022-08-16T06:20:24.051Z,20.90
2022-08-16T06:22:59.046Z,20.90
2022-08-16T06:25:36.336Z,20.90
2022-08-16T06:28:16.964Z,20.90
2022-08-16T06:30:59.189Z,20.90
2022-08-16T06:33:29.458Z,21.00
2022-08-16T06:36:09.956Z,21.00
2022-08-16T06:38:39.067Z,21.00
2022-08-16T06:41:27.533Z,21.00
2022-08-16T06:43:57.517Z,21.10
2022-08-16T06:46:35.083Z,21.60
2022-08-16T06:49:06.960Z,21.20
2022-08-16T06:51:46.705Z,21.20
2022-08-16T06:54:16.823Z,21.20
2022-08-16T06:56:44.531Z,20.80
2022-08-16T06:59:13.264Z,21.20
2022-08-16T07:01:45.086Z,21.10
2022-08-16T07:04:32.506Z,21.10
2022-08-16T07:07:09.546Z,21.20
2022-08-16T07:09:37.697Z,21.20
2022-08-16T07:12:05.799Z,21.20
2022-08-16T07:14:36.204Z,21.30
2022-08-16T07:17:08.367Z,21.30
2022-08-16T07:20:29.514Z,21.30
2022-08-16T07:22:52.385Z,21.30
2022-08-16T07:25:16.781Z,21.40
2022-08-16T07:27:44.494Z,21.40
2022-08-16T07:30:45.465Z,21.50
2022-08-16T07:33:07.064Z,21.50
2022-08-16T07:35:34.695Z,21.50
2022-08-16T07:38:04.546Z,21.60
2022-08-16T07:40:59.780Z,21.60
2022-08-16T07:43:23.046Z,21.60
2022-08-16T07:45:53.173Z,21.60
2022-08-16T07:48:21.689Z,21.60
2022-08-16T07:50:57.103Z,21.60
2022-08-16T07:53:32.009Z,21.60
2022-08-16T07:56:00.794Z,21.70
2022-08-16T07:58:34.122Z,21.70
2022-08-16T08:01:10.911Z,21.70
2022-08-16T08:03:48.280Z,21.80
2022-08-16T08:06:25.007Z,21.90
2022-08-16T08:08:57.475Z,22.00
2022-08-16T08:11:28.570Z,22.10
2022-08-16T08:14:03.202Z,22.10
2022-08-16T08:16:32.683Z,22.20
2022-08-16T08:19:02.860Z,22.20
2022-08-16T08:21:58.524Z,22.20
2022-08-16T08:24:22.705Z,22.10
2022-08-16T08:27:02.418Z,22.20
2022-08-16T08:29:37.807Z,22.20
2022-08-16T08:32:57.426Z,22.50
2022-08-16T08:35:00.469Z,22.30
2022-08-16T08:37:54.143Z,22.30
2022-08-16T08:40:24.190Z,22.30
2022-08-16T08:42:57.996Z,22.30
2022-08-16T08:45:47.962Z,22.30
2022-08-16T08:48:33.064Z,22.30
2022-08-16T08:51:09.000Z,22.30
2022-08-16T08:53:37.866Z,22.20
2022-08-16T08:56:23.464Z,22.30
2022-08-16T08:58:59.070Z,22.30
2022-08-16T09:01:36.907Z,22.30
2022-08-16T09:04:14.599Z,22.20
2022-08-16T09:06:45.563Z,22.30
2022-08-16T09:09:17.178Z,22.40
2022-08-16T09:11:52.400Z,22.40
2022-08-16T09:14:32.968Z,22.40
2022-08-16T09:17:03.314Z,22.50
2022-08-16T09:19:34.630Z,22.50
2022-08-16T09:22:02.272Z,22.40
2022-08-16T09:24:46.648Z,22.40
2022-08-16T09:27:18.055Z,22.40
2022-08-16T09:29:46.713Z,22.30
2022-08-16T09:32:28.628Z,22.30
2022-08-16T09:34:59.001Z,22.20
2022-08-16T09:37:29.629Z,22.20
2022-08-16T09:39:59.706Z,22.10
2022-08-16T09:42:30.967Z,21.90
2022-08-16T09:45:18.752Z,21.80
2022-08-16T09:47:56.652Z,21.70
2022-08-16T09:50:33.196Z,21.70
2022-08-16T09:53:15.456Z,21.60
2022-08-16T09:55:49.512Z,21.60
2022-08-16T09:58:40.811Z,21.60
2022-08-16T10:01:08.435Z,21.70
2022-08-16T10:03:37.263Z,21.30
2022-08-16T10:06:26.237Z,21.30
2022-08-16T10:09:08.399Z,21.30
2022-08-16T10:12:11.035Z,21.20
2022-08-16T10:14:40.769Z,21.20
2022-08-16T10:17:14.654Z,21.00
2022-08-16T10:19:43.340Z,21.00
2022-08-16T10:22:12.682Z,20.90
2022-08-16T10:24:59.333Z,20.90
2022-08-16T10:27:30.040Z,20.90
2022-08-16T10:30:25.859Z,20.80
2022-08-16T10:32:57.308Z,20.80
2022-08-16T10:35:32.952Z,20.80
2022-08-16T10:38:01.767Z,20.80
2022-08-16T10:40:34.508Z,20.80
2022-08-16T10:43:01.960Z,20.80
2022-08-16T10:45:36.964Z,20.70
2022-08-16T10:48:27.813Z,20.70
2022-08-16T10:50:58.914Z,20.60
2022-08-16T10:53:32.736Z,20.60
2022-08-16T10:56:44.247Z,20.50
2022-08-16T10:59:32.348Z,20.40
2022-08-16T11:02:21.845Z,20.40
2022-08-16T11:13:20.803Z,20.00
2022-08-16T11:15:55.714Z,19.90
2022-08-16T11:18:48.996Z,19.80
2022-08-16T11:21:29.453Z,19.80
2022-08-16T11:23:59.097Z,19.80
2022-08-16T11:26:28.758Z,19.70
2022-08-16T11:29:14.043Z,19.70
2022-08-16T11:31:45.823Z,19.70
2022-08-16T11:34:21.276Z,19.70
2022-08-16T11:36:53.884Z,19.70
2022-08-16T11:39:31.883Z,19.70
2022-08-16T11:42:03.062Z,19.70
2022-08-16T11:44:52.586Z,19.70
2022-08-16T11:47:20.969Z,19.80
2022-08-16T11:49:48.566Z,19.80
2022-08-16T11:52:18.036Z,19.80
2022-08-16T11:54:53.958Z,19.80
2022-08-16T11:57:24.614Z,19.80
2022-08-16T11:59:54.903Z,19.80
2022-08-16T12:02:32.310Z,19.90
2022-08-16T12:05:00.908Z,20.00
2022-08-16T12:07:29.372Z,20.10
2022-08-16T12:10:04.547Z,20.10
2022-08-16T12:12:32.752Z,20.00
2022-08-16T12:15:01.941Z,20.20
2022-08-16T12:17:32.333Z,20.30
2022-08-16T12:20:02.132Z,20.30
2022-08-16T12:22:36.535Z,20.20
2022-08-16T12:25:09.020Z,20.30
2022-08-16T12:27:39.264Z,20.40
2022-08-16T12:30:09.108Z,20.60
2022-08-16T12:32:53.024Z,20.70
2022-08-16T12:35:24.692Z,20.70
2022-08-16T12:37:56.620Z,20.70
2022-08-16T12:40:30.310Z,20.70
2022-08-16T12:43:00.879Z,20.70
2022-08-16T12:45:34.534Z,20.70
2022-08-16T12:48:33.820Z,20.80
2022-08-16T12:51:13.666Z,20.90
2022-08-16T12:53:51.817Z,21.00
2022-08-16T12:56:21.582Z,21.10
2022-08-16T12:58:55.900Z,21.20
2022-08-16T13:01:27.107Z,21.30
2022-08-16T13:04:12.180Z,21.40
2022-08-16T13:06:44.969Z,21.50
2022-08-16T13:09:37.884Z,21.60
2022-08-16T13:12:20.972Z,21.60
2022-08-16T13:14:50.089Z,21.50
2022-08-16T13:17:26.320Z,21.50
2022-08-16T13:20:11.430Z,21.50
2022-08-16T13:22:50.147Z,21.60
2022-08-16T13:25:24.063Z,21.60
2022-08-16T13:28:02.495Z,21.60
2022-08-16T13:30:41.860Z,21.60
2022-08-16T13:33:15.793Z,21.60
2022-08-16T13:35:56.556Z,21.50
2022-08-16T13:38:27.492Z,21.50
2022-08-16T13:40:58.786Z,21.50
2022-08-16T13:43:29.133Z,21.50
2022-08-16T13:46:02.835Z,21.90
2022-08-16T13:48:37.132Z,21.50
2022-08-16T13:51:15.868Z,21.50
2022-08-16T13:53:54.791Z,21.60
2022-08-16T13:56:39.553Z,21.70
2022-08-16T13:59:19.972Z,21.60
2022-08-16T14:01:55.272Z,21.70
2022-08-16T14:04:27.102Z,21.80
2022-08-16T14:06:57.477Z,21.80
2022-08-16T14:09:27.298Z,21.90
2022-08-16T14:11:58.084Z,21.70
2022-08-16T14:14:30.363Z,21.70
2022-08-16T14:17:02.320Z,21.90
2022-08-16T14:19:33.290Z,21.90
2022-08-16T14:22:14.554Z,22.00
2022-08-16T14:24:52.668Z,22.00
2022-08-16T14:27:23.031Z,22.10
2022-08-16T14:29:53.033Z,22.20
2022-08-16T14:32:33.314Z,22.20
2022-08-16T14:35:08.266Z,22.20
2022-08-16T14:37:38.072Z,22.10
2022-08-16T14:40:07.796Z,22.00
2022-08-16T14:42:36.710Z,21.90
2022-08-16T14:45:07.672Z,21.90
2022-08-16T14:47:39.289Z,21.80
2022-08-16T14:50:16.481Z,21.70
2022-08-16T14:52:56.362Z,21.70
2022-08-16T14:55:27.978Z,21.70
2022-08-16T14:57:55.819Z,21.70
2022-08-16T15:00:27.172Z,21.70
2022-08-16T15:03:05.723Z,21.70
2022-08-16T15:05:35.016Z,21.70
2022-08-16T15:08:03.234Z,21.80
2022-08-16T15:10:32.164Z,21.60
2022-08-16T15:13:01.404Z,21.60
2022-08-16T15:15:30.043Z,21.60
2022-08-16T15:17:57.809Z,21.60
2022-08-16T15:20:31.199Z,21.60
2022-08-16T15:23:01.789Z,21.50
2022-08-16T15:25:33.820Z,21.50
2022-08-16T15:28:04.759Z,21.60
2022-08-16T15:30:56.805Z,21.60
2022-08-16T15:33:27.407Z,21.60
2022-08-16T15:35:58.544Z,21.60
2022-08-16T15:38:58.190Z,21.50
2022-08-16T15:41:39.045Z,21.50
2022-08-16T15:44:42.698Z,21.40
2022-08-16T15:47:18.486Z,21.40
2022-08-16T15:49:56.019Z,21.40
2022-08-16T15:52:30.962Z,21.40
2022-08-16T15:55:12.754Z,21.60
2022-08-16T15:57:51.744Z,21.50
2022-08-16T16:00:23.002Z,21.50
2022-08-16T16:03:08.784Z,21.40
2022-08-16T16:05:39.547Z,21.50
2022-08-16T16:08:09.945Z,21.50
2022-08-16T16:10:40.679Z,21.50
2022-08-16T16:13:09.943Z,21.50
2022-08-16T16:15:41.182Z,21.50
2022-08-16T16:18:12.129Z,21.40
2022-08-16T16:20:49.860Z,21.40
2022-08-16T16:23:24.854Z,21.30
2022-08-16T16:25:56.607Z,21.70
2022-08-16T16:28:51.134Z,21.40
2022-08-16T16:31:21.934Z,21.40
2022-08-16T16:33:57.737Z,21.40
2022-08-16T16:36:28.740Z,21.50
2022-08-16T16:38:57.170Z,21.50
2022-08-16T16:41:27.950Z,21.70
2022-08-16T16:43:56.772Z,21.60
2022-08-16T16:46:42.396Z,21.60
2022-08-16T16:49:12.551Z,21.60
2022-08-16T16:51:44.502Z,21.60
2022-08-16T16:54:27.568Z,21.60
2022-08-16T16:56:58.469Z,21.70
2022-08-16T16:59:28.782Z,21.70
2022-08-16T17:02:38.280Z,21.80
2022-08-16T17:04:44.182Z,21.90
2022-08-16T17:07:12.166Z,21.90
2022-08-16T17:09:41.706Z,21.90
2022-08-16T17:12:14.598Z,21.90
2022-08-16T17:14:55.853Z,21.90
2022-08-16T17:17:24.187Z,21.80
2022-08-16T17:19:51.675Z,21.90
2022-08-16T17:22:21.132Z,21.90
2022-08-16T17:24:52.509Z,21.90
2022-08-16T17:27:33.429Z,21.90
2022-08-16T17:30:16.185Z,21.90
2022-08-16T17:32:55.624Z,21.90
2022-08-16T17:35:34.323Z,21.90
2022-08-16T17:38:06.131Z,21.90
2022-08-16T17:40:49.271Z,21.90
2022-08-16T17:43:37.644Z,22.30
2022-08-16T17:46:41.388Z,21.80
2022-08-16T17:49:00.931Z,21.80
2022-08-16T17:51:28.592Z,21.80
2022-08-16T17:53:56.693Z,21.70
2022-08-16T17:56:24.386Z,21.70
2022-08-16T17:58:52.713Z,21.60
2022-08-16T18:01:25.571Z,21.70
2022-08-16T18:04:08.028Z,21.70
2022-08-16T18:06:39.796Z,22.20
2022-08-16T18:09:08.372Z,21.70
2022-08-16T18:11:43.012Z,21.60
2022-08-16T18:14:13.225Z,21.60
2022-08-16T18:16:41.334Z,21.60
2022-08-16T18:19:10.093Z,21.50
2022-08-16T18:21:57.023Z,21.50
2022-08-16T18:24:28.020Z,21.50
2022-08-16T18:26:55.734Z,21.50
2022-08-16T18:29:23.225Z,21.40
2022-08-16T18:31:51.400Z,21.40
2022-08-16T18:34:20.723Z,21.30
2022-08-16T18:36:48.550Z,21.30
2022-08-16T18:39:16.361Z,21.30
2022-08-16T18:41:47.247Z,21.20
2022-08-16T18:44:25.241Z,21.10
2022-08-16T18:46:55.778Z,21.00
2022-08-16T18:49:24.262Z,21.00
2022-08-16T18:51:57.303Z,21.00
2022-08-16T18:54:26.287Z,20.90
2022-08-16T18:56:57.553Z,20.90
2022-08-16T18:59:27.814Z,20.80
2022-08-16T19:02:00.253Z,20.80
2022-08-16T19:04:55.561Z,20.70
2022-08-16T19:07:30.894Z,20.70
2022-08-16T19:10:02.022Z,20.70
2022-08-16T19:12:37.909Z,20.30
2022-08-16T19:15:17.434Z,20.60
2022-08-16T19:17:46.008Z,20.50
2022-08-16T19:20:20.573Z,20.50
2022-08-16T19:23:05.813Z,20.50
2022-08-16T19:25:46.757Z,20.40
2022-08-16T19:28:51.474Z,20.40
2022-08-16T19:31:31.834Z,20.40
2022-08-16T19:34:00.678Z,20.40
2022-08-16T19:36:36.842Z,20.40
2022-08-16T19:39:11.192Z,20.40
2022-08-16T19:41:42.588Z,20.40
2022-08-16T19:44:10.274Z,20.40
2022-08-16T19:46:41.984Z,20.40
2022-08-16T19:49:09.415Z,20.40
2022-08-16T19:51:39.605Z,20.40
2022-08-16T19:54:07.129Z,20.40
2022-08-16T19:56:34.523Z,20.40
2022-08-16T19:59:21.166Z,20.40
2022-08-16T20:01:52.083Z,20.40
2022-08-16T20:04:22.045Z,20.40
2022-08-16T20:06:50.978Z,20.40
2022-08-16T20:09:21.625Z,20.40
2022-08-16T20:11:50.624Z,20.40
2022-08-16T20:14:22.663Z,20.40
2022-08-16T20:16:58.384Z,20.40
2022-08-16T20:19:27.983Z,20.50
2022-08-16T20:21:57.358Z,20.50
2022-08-16T20:24:35.712Z,20.50
2022-08-16T20:27:07.566Z,20.50
2022-08-16T20:29:37.461Z,20.50
2022-08-16T20:32:06.414Z,20.50
2022-08-16T20:34:34.265Z,20.50
2022-08-16T20:37:01.732Z,20.50
2022-08-16T20:39:29.223Z,20.40
2022-08-16T20:41:56.670Z,20.40
2022-08-16T20:44:25.231Z,20.40
2022-08-16T20:46:52.998Z,20.40
2022-08-16T20:49:20.368Z,20.40
2022-08-16T20:51:50.585Z,20.40
2022-08-16T20:54:18.595Z,20.40
2022-08-16T20:56:46.709Z,20.40
2022-08-16T20:59:14.098Z,20.40
2022-08-16T21:01:46.773Z,20.40
2022-08-16T21:04:19.657Z,20.40
2022-08-16T21:06:53.544Z,20.30
2022-08-16T21:09:30.080Z,20.30
2022-08-16T21:12:00.870Z,20.30
2022-08-16T21:14:29.770Z,20.30
2022-08-16T21:16:57.316Z,20.30
2022-08-16T21:19:25.646Z,20.30
2022-08-16T21:21:53.185Z,20.30
2022-08-16T21:24:21.406Z,20.30
2022-08-16T21:26:55.571Z,20.30
2022-08-16T21:29:28.459Z,20.30
2022-08-16T21:32:09.608Z,20.30
2022-08-16T21:34:37.135Z,20.30
2022-08-16T21:37:05.335Z,20.40
2022-08-16T21:39:32.934Z,20.30
2022-08-16T21:42:01.057Z,20.30
2022-08-16T21:44:32.533Z,20.30
2022-08-16T21:47:08.137Z,20.30
2022-08-16T21:49:36.949Z,20.30
2022-08-16T21:52:06.251Z,20.10
2022-08-16T21:54:35.882Z,20.30
2022-08-16T21:57:08.680Z,20.30
2022-08-16T21:59:38.486Z,20.30
2022-08-16T22:02:07.417Z,20.30
2022-08-16T22:04:37.652Z,20.20
2022-08-16T22:07:06.794Z,20.20
2022-08-16T22:09:34.676Z,20.20
2022-08-16T22:12:02.488Z,20.20
2022-08-16T22:14:33.010Z,20.20
2022-08-16T22:17:00.436Z,20.10
2022-08-16T22:19:28.017Z,20.10
2022-08-16T22:21:55.761Z,20.10
2022-08-16T22:24:23.122Z,20.10
2022-08-16T22:26:50.543Z,20.10
2022-08-16T22:29:18.034Z,20.10
2022-08-16T22:31:45.492Z,20.10
2022-08-16T22:34:13.705Z,20.10
2022-08-16T22:36:43.216Z,19.90
2022-08-16T22:39:14.436Z,20.10
2022-08-16T22:41:45.706Z,20.10
2022-08-16T22:44:14.184Z,20.00
2022-08-16T22:46:43.859Z,20.00
2022-08-16T22:49:13.040Z,20.00
2022-08-16T22:51:40.605Z,20.00
2022-08-16T22:54:44.007Z,20.00
2022-08-16T22:57:00.188Z,19.90
2022-08-16T22:59:29.676Z,19.90
2022-08-16T23:01:57.235Z,19.80
2022-08-16T23:04:26.430Z,19.80
2022-08-16T23:06:54.217Z,19.80
2022-08-16T23:09:22.043Z,19.80
2022-08-16T23:11:49.800Z,19.80
2022-08-16T23:14:17.711Z,19.80
2022-08-16T23:16:47.301Z,19.80
2022-08-16T23:19:16.003Z,19.80
2022-08-16T23:21:46.958Z,19.80
2022-08-16T23:24:19.502Z,19.80
2022-08-16T23:26:49.009Z,19.80
2022-08-16T23:29:24.750Z,19.80
2022-08-16T23:31:59.557Z,19.80
2022-08-16T23:34:28.387Z,19.80
2022-08-16T23:36:56.774Z,19.80
2022-08-16T23:39:24.418Z,19.80
2022-08-16T23:41:52.860Z,19.70
2022-08-16T23:44:55.451Z,19.70
2022-08-16T23:47:08.073Z,19.80
2022-08-16T23:49:58.303Z,19.70
2022-08-16T23:52:39.431Z,19.60
2022-08-16T23:55:11.209Z,19.60
2022-08-16T23:57:38.576Z,19.60
